Flight Track Log - Related Links

Times and Time Zones

All times are in EDT time to prevent confusion due to time zone crossing. See the GJS3710 flight status page for this flight to view local times or setup timezone preferences in your user account.

Time Position Orientation Groundspeed Altitude Reporting Facility
EDT Latitude Longitude Course Direction KTS MPH feet Rate Location/Type
Mon 11:13:10 PM 42.0000 -87.8833 86° East 150 173 2,100  Level Chicago TRACON
Mon 11:14:20 PM 42.0189 -87.8111 71° East 194 223 3,700 1,924 Climbing Chicago Center
Mon 11:15:00 PM 42.1301 -87.4519 63° Northeast  Level FlightAware Approximate
Mon 11:15:21 PM 42.0447 -87.6967 73° East 266 306 6,300  Level Chicago Center
Mon 11:16:00 PM 42.1842 -87.2975 66° East  Level FlightAware Approximate
Mon 11:16:22 PM 42.0822 -87.6022 62° Northeast 285 328 8,900  Level Chicago Center
Mon 11:17:00 PM 42.2361 -87.1416 66° East  Level FlightAware Approximate
Mon 11:17:23 PM 42.1208 -87.4986 63° Northeast 306 352 11,800  Level Chicago Center
Mon 11:18:00 PM 42.2677 -86.9794 86° East  Level FlightAware Approximate
Mon 11:18:25 PM 42.1586 -87.3931 64° Northeast 313 360 14,100  Level Chicago Center
Mon 11:19:26 PM 42.2033 -87.2711 64° Northeast 358 412 15,200 1,279 Climbing Chicago Center
Mon 11:20:27 PM 42.2514 -87.1369 64° Northeast 395 455 16,700 1,525 Climbing Chicago Center
Mon 11:21:28 PM 42.2817 -86.9875 75° East 418 481 18,300 1,463 Climbing Chicago Center
Mon 11:22:30 PM 42.2892 -86.8208 86° East 443 510 19,700 1,463 Climbing Chicago Center
Mon 11:23:31 PM 42.2958 -86.6356 87° East 458 527 21,300 1,426 Climbing Chicago Center
Mon 11:24:32 PM 42.3036 -86.4667 86° East 472 543 22,600 1,475 Climbing Chicago Center
Mon 11:25:33 PM 42.3108 -86.2522 87° East 479 551 24,300 1,512 Climbing Chicago Center
Mon 11:26:35 PM 42.3167 -86.0703 87° East 487 560 25,700 1,317 Climbing Chicago Center
Mon 11:27:36 PM 42.3139 -85.8872 91° East 491 565 27,000 1,230 Climbing Chicago Center
Mon 11:28:37 PM 42.3117 -85.7003 91° East 499 574 28,200 1,033 Climbing Chicago Center
Mon 11:29:38 PM 42.3092 -85.5097 91° East 508 585 29,100 836 Climbing Chicago Center
Mon 11:30:39 PM 42.3064 -85.3161 91° East 517 595 29,900 732 Climbing Chicago Center
Mon 11:31:41 PM 42.3039 -85.1164 91° East 530 610 30,600 683 Climbing Chicago Center
Mon 11:32:42 PM 42.2992 -84.9128 92° East 542 624 31,300 836 Climbing Chicago Center
Mon 11:33:43 PM 42.2933 -84.6678 92° East 546 628 32,300 836 Climbing Chicago Center
Mon 11:34:44 PM 42.2892 -84.4622 92° East 549 632 33,000 703 Climbing Chicago Center
Mon 11:35:34 PM 42.3039 -84.3089 83° East 544 626 33,600 545 Climbing Cleveland Center
Mon 11:36:34 PM 42.3356 -84.1031 78° East 549 632 34,000 200 Climbing Cleveland Center
Mon 11:37:34 PM 42.3667 -83.8911 79° East 562 647 34,000 200 Level Cleveland Center
Mon 11:38:34 PM 42.3975 -83.6844 79° East 562 647 34,400 700 Climbing Cleveland Center
Mon 11:39:34 PM 42.4114 -83.4742 85° East 562 647 35,400 1,000 Climbing Cleveland Center
Mon 11:40:34 PM 42.4186 -83.2636 87° East 556 640 36,400 900 Climbing Cleveland Center
Mon 11:41:34 PM 42.4253 -83.0531 87° East 551 634 37,200 800 Climbing Cleveland Center
Mon 11:42:34 PM 42.4336 -82.8478 87° East 551 634 38,000 750 Climbing Cleveland Center
Mon 11:43:34 PM 42.4378 -82.6397 88° East 551 634 38,700 500 Climbing Cleveland Center
Mon 11:44:34 PM 42.4453 -82.4375 87° East 551 634 39,000 150 Climbing Cleveland Center
Mon 11:45:34 PM 42.4483 -82.2264 89° East 546 628 39,000  Level Cleveland Center
Mon 11:46:34 PM 42.4556 -81.9986 87° East 551 634 39,000  Level Cleveland Center
Mon 11:47:34 PM 42.4600 -81.7989 88° East 557 641 39,000  Level Cleveland Center
Mon 11:48:34 PM 42.4686 -81.5683 87° East 557 641 39,000  Level Cleveland Center
Mon 11:49:34 PM 42.4722 -81.3517 89° East 557 641 39,000  Level Cleveland Center
Mon 11:50:34 PM 42.4756 -81.1406 89° East 571 657 39,000  Level Cleveland Center
Mon 11:51:34 PM 42.4783 -80.9464 89° East 571 657 39,000  Level Cleveland Center
Mon 11:52:34 PM 42.4808 -80.7325 89° East 571 657 39,000  Level Cleveland Center
Mon 11:53:34 PM 42.4831 -80.5183 89° East 573 659 39,000  Level Cleveland Center
Mon 11:54:34 PM 42.4850 -80.3017 89° East 568 654 39,000  Level Cleveland Center
Mon 11:55:34 PM 42.4861 -80.0819 90° East 573 659 39,000  Level Cleveland Center
Mon 11:56:34 PM 42.4914 -79.8736 88° East 568 654 39,000  Level Cleveland Center
Mon 11:57:34 PM 42.4897 -79.6511 91° East 568 654 39,000  Level Cleveland Center
Mon 11:58:34 PM 42.4942 -79.4372 88° East 573 659 39,000  Level Cleveland Center
Mon 11:59:34 PM 42.4942 -79.2400 90° East 568 654 39,000  Level Cleveland Center
Tue 12:00:34 AM 42.5117 -78.9861 85° East 576 663 39,000  Level Cleveland Center
Tue 12:01:34 AM 42.5256 -78.7997 84° East 570 656 39,000  Level Cleveland Center
Tue 12:02:34 AM 42.5406 -78.5656 85° East 570 656 39,000  Level Cleveland Center
Tue 12:03:34 AM 42.5533 -78.3536 85° East 565 650 39,000 -300 Level Cleveland Center
Tue 12:04:34 AM 42.5658 -78.1417 85° East 560 644 38,400 -800 Descending Cleveland Center
Tue 12:05:34 AM 42.5797 -77.9242 85° East 567 652 37,400 -1,000 Descending Cleveland Center
Tue 12:06:34 AM 42.5933 -77.7064 85° East 574 661 36,400 -1,000 Descending Cleveland Center
Tue 12:07:34 AM 42.6042 -77.4831 86° East 586 674 35,400 -980 Descending Cleveland Center
Tue 12:09:07 AM 42.6219 -77.1417 86° East 610 702 33,900 -980 Descending Boston Center
Tue 12:10:07 AM 42.6333 -76.9167 86° East 596 686 32,900 -1,000 Descending Boston Center
Tue 12:11:07 AM 42.6458 -76.6972 85° East 591 680 31,900 -1,000 Descending Boston Center
Tue 12:12:07 AM 42.6561 -76.4722 86° East 586 674 30,900 -1,000 Descending Boston Center
Tue 12:13:07 AM 42.6678 -76.2525 86° East 586 674 29,900 -1,150 Descending Boston Center
Tue 12:14:07 AM 42.6767 -76.0439 87° East 572 658 28,600 -1,600 Descending Boston Center
Tue 12:15:07 AM 42.6850 -75.8411 87° East 560 644 26,700 -2,200 Descending Boston Center
Tue 12:16:07 AM 42.6928 -75.6494 87° East 535 616 24,200 -2,250 Descending Boston Center
Tue 12:17:07 AM 42.7000 -75.4633 87° East 504 580 22,200 -2,000 Descending Boston Center
Tue 12:18:07 AM 42.7044 -75.2853 88° East 485 558 20,200 -2,000 Descending Boston Center
Tue 12:19:07 AM 42.7128 -75.1133 86° East 468 539 18,200 -1,955 Descending Boston Center
Tue 12:19:36 AM 42.7167 -75.0344 86° East 467 537 17,300 -1,800 Descending Boston Center
Tue 12:20:07 AM 42.7169 -74.9383 90° East 457 526 16,400 -1,770 Descending Boston Center
Tue 12:20:37 AM 42.7189 -74.8478 88° East 454 522 15,500 -1,600 Descending Boston Center
Tue 12:21:07 AM 42.7222 -74.7886 86° East 452 520 14,800 -1,800 Descending Boston Center
Tue 12:21:37 AM 42.7283 -74.6844 85° East 441 507 13,700 -2,000 Descending Boston Center
Tue 12:22:07 AM 42.7278 -74.6081 91° East 441 507 12,800 -1,475 Descending Boston Center
Tue 12:22:38 AM 42.7314 -74.5289 86° East 413 475 12,200 -1,055 Descending Boston Center
Tue 12:23:38 AM 42.7297 -74.3819 91° East 377 434 11,200 -1,537 Descending Boston Center
Tue 12:24:39 AM 42.7131 -74.2628 101° East 305 351 9,100 -2,115 Descending Boston Center
Tue 12:25:40 AM 42.6961 -74.1464 101° East 307 353 6,900 -2,281 Descending Boston Center
Tue 12:26:40 AM 42.6853 -74.0331 97° East 299 344 4,500 -1,438 Descending Boston Center
Tue 12:27:41 AM 42.6678 -73.9253 102° East 256 295 4,000 -893 Descending Boston Center
Tue 12:28:41 AM 42.6586 -73.8433 99° East 206 237 2,700 -1,240 Descending Boston Center
Tue 12:29:42 AM 42.6778 -73.8042 56° Northeast 125 144 1,500 -938 Descending Boston Center
Tue 12:30:49 AM 42.7194 -73.8078 356° North 116 133 700 -716 Descending Boston Center

Login

Don't have an account? Register now (free) for customized features, flight alerts, and more!